sensor_id;sensor_type;location;lat;lon;timestamp;P1;durP1;ratioP1;P2;durP2;ratioP2
16973;SDS011;8603;46.944;7.412;2023-03-21T00:01:10;4.50;;;3.20;;
16973;SDS011;8603;46.944;7.412;2023-03-21T00:03:36;4.03;;;3.40;;
16973;SDS011;8603;46.944;7.412;2023-03-21T00:06:06;3.10;;;2.70;;
16973;SDS011;8603;46.944;7.412;2023-03-21T00:08:32;3.90;;;3.40;;
16973;SDS011;8603;46.944;7.412;2023-03-21T00:10:59;3.70;;;3.10;;
16973;SDS011;8603;46.944;7.412;2023-03-21T00:13:27;2.67;;;2.40;;
16973;SDS011;8603;46.944;7.412;2023-03-21T00:15:56;3.27;;;2.73;;
16973;SDS011;8603;46.944;7.412;2023-03-21T00:18:39;3.70;;;3.30;;
16973;SDS011;8603;46.944;7.412;2023-03-21T00:21:10;3.97;;;3.47;;
16973;SDS011;8603;46.944;7.412;2023-03-21T00:23:39;4.03;;;2.93;;
16973;SDS011;8603;46.944;7.412;2023-03-21T00:26:05;4.20;;;3.33;;
16973;SDS011;8603;46.944;7.412;2023-03-21T00:28:33;3.97;;;3.47;;
16973;SDS011;8603;46.944;7.412;2023-03-21T00:31:02;4.77;;;3.50;;
16973;SDS011;8603;46.944;7.412;2023-03-21T00:33:29;4.27;;;3.50;;
16973;SDS011;8603;46.944;7.412;2023-03-21T00:35:55;4.47;;;3.97;;
16973;SDS011;8603;46.944;7.412;2023-03-21T00:38:21;4.97;;;3.53;;
16973;SDS011;8603;46.944;7.412;2023-03-21T00:40:48;4.17;;;3.63;;
16973;SDS011;8603;46.944;7.412;2023-03-21T00:43:14;4.47;;;3.80;;
16973;SDS011;8603;46.944;7.412;2023-03-21T00:45:47;4.90;;;4.27;;
16973;SDS011;8603;46.944;7.412;2023-03-21T00:48:14;4.67;;;3.80;;
16973;SDS011;8603;46.944;7.412;2023-03-21T00:50:40;4.40;;;4.00;;
16973;SDS011;8603;46.944;7.412;2023-03-21T00:53:09;5.60;;;3.77;;
16973;SDS011;8603;46.944;7.412;2023-03-21T00:55:35;5.27;;;4.27;;
16973;SDS011;8603;46.944;7.412;2023-03-21T00:58:02;5.03;;;3.77;;
16973;SDS011;8603;46.944;7.412;2023-03-21T01:00:28;3.67;;;3.37;;
16973;SDS011;8603;46.944;7.412;2023-03-21T01:02:54;4.87;;;3.73;;
16973;SDS011;8603;46.944;7.412;2023-03-21T01:05:32;5.07;;;3.57;;
16973;SDS011;8603;46.944;7.412;2023-03-21T01:08:20;5.10;;;3.10;;
16973;SDS011;8603;46.944;7.412;2023-03-21T01:10:49;4.57;;;3.20;;
16973;SDS011;8603;46.944;7.412;2023-03-21T01:13:16;5.97;;;2.90;;
16973;SDS011;8603;46.944;7.412;2023-03-21T01:15:45;3.07;;;2.80;;
16973;SDS011;8603;46.944;7.412;2023-03-21T01:18:14;5.43;;;4.30;;
16973;SDS011;8603;46.944;7.412;2023-03-21T01:20:42;5.47;;;3.77;;
16973;SDS011;8603;46.944;7.412;2023-03-21T01:23:09;4.60;;;3.90;;
16973;SDS011;8603;46.944;7.412;2023-03-21T01:25:36;5.43;;;4.40;;
16973;SDS011;8603;46.944;7.412;2023-03-21T01:28:03;6.37;;;4.40;;
16973;SDS011;8603;46.944;7.412;2023-03-21T01:33:08;4.57;;;4.10;;
16973;SDS011;8603;46.944;7.412;2023-03-21T01:35:35;4.37;;;3.97;;
16973;SDS011;8603;46.944;7.412;2023-03-21T01:38:01;4.70;;;4.10;;
16973;SDS011;8603;46.944;7.412;2023-03-21T01:40:26;6.03;;;4.00;;
16973;SDS011;8603;46.944;7.412;2023-03-21T01:42:54;4.30;;;3.90;;
16973;SDS011;8603;46.944;7.412;2023-03-21T01:48:23;5.13;;;3.87;;
16973;SDS011;8603;46.944;7.412;2023-03-21T01:50:50;6.43;;;4.30;;
16973;SDS011;8603;46.944;7.412;2023-03-21T01:53:18;4.37;;;3.97;;
16973;SDS011;8603;46.944;7.412;2023-03-21T01:55:46;5.80;;;4.83;;
16973;SDS011;8603;46.944;7.412;2023-03-21T01:58:13;5.77;;;4.07;;
16973;SDS011;8603;46.944;7.412;2023-03-21T02:00:42;5.97;;;4.93;;
16973;SDS011;8603;46.944;7.412;2023-03-21T02:03:12;4.17;;;3.77;;
16973;SDS011;8603;46.944;7.412;2023-03-21T02:08:18;6.43;;;3.90;;
16973;SDS011;8603;46.944;7.412;2023-03-21T02:10:45;6.23;;;4.33;;
16973;SDS011;8603;46.944;7.412;2023-03-21T02:13:12;4.90;;;4.00;;
16973;SDS011;8603;46.944;7.412;2023-03-21T02:15:39;5.13;;;4.30;;
16973;SDS011;8603;46.944;7.412;2023-03-21T02:23:29;6.13;;;3.87;;
16973;SDS011;8603;46.944;7.412;2023-03-21T02:32:03;4.60;;;3.10;;
16973;SDS011;8603;46.944;7.412;2023-03-21T02:34:43;5.70;;;4.10;;
16973;SDS011;8603;46.944;7.412;2023-03-21T02:37:51;4.33;;;3.90;;
16973;SDS011;8603;46.944;7.412;2023-03-21T02:43:14;5.27;;;4.00;;
16973;SDS011;8603;46.944;7.412;2023-03-21T02:45:51;4.93;;;3.90;;
16973;SDS011;8603;46.944;7.412;2023-03-21T02:48:21;5.97;;;3.80;;
16973;SDS011;8603;46.944;7.412;2023-03-21T02:50:54;5.30;;;4.10;;
16973;SDS011;8603;46.944;7.412;2023-03-21T02:53:23;4.20;;;3.77;;
16973;SDS011;8603;46.944;7.412;2023-03-21T02:55:53;5.00;;;4.00;;
16973;SDS011;8603;46.944;7.412;2023-03-21T02:58:21;4.80;;;4.07;;
16973;SDS011;8603;46.944;7.412;2023-03-21T03:00:49;4.53;;;4.13;;
16973;SDS011;8603;46.944;7.412;2023-03-21T03:03:19;4.70;;;3.93;;
16973;SDS011;8603;46.944;7.412;2023-03-21T03:05:52;4.23;;;3.83;;
16973;SDS011;8603;46.944;7.412;2023-03-21T03:11:25;4.10;;;3.70;;
16973;SDS011;8603;46.944;7.412;2023-03-21T03:14:05;5.77;;;4.23;;
16973;SDS011;8603;46.944;7.412;2023-03-21T03:19:09;5.20;;;4.00;;
16973;SDS011;8603;46.944;7.412;2023-03-21T03:21:40;8.07;;;4.90;;
16973;SDS011;8603;46.944;7.412;2023-03-21T03:27:20;4.43;;;3.77;;
16973;SDS011;8603;46.944;7.412;2023-03-21T03:29:53;4.33;;;3.90;;
16973;SDS011;8603;46.944;7.412;2023-03-21T03:32:27;4.83;;;4.30;;
16973;SDS011;8603;46.944;7.412;2023-03-21T03:35:00;5.83;;;4.50;;
16973;SDS011;8603;46.944;7.412;2023-03-21T03:37:28;4.67;;;4.23;;
16973;SDS011;8603;46.944;7.412;2023-03-21T03:42:36;4.40;;;4.00;;
16973;SDS011;8603;46.944;7.412;2023-03-21T03:45:06;5.63;;;4.57;;
16973;SDS011;8603;46.944;7.412;2023-03-21T03:52:56;5.33;;;4.13;;
16973;SDS011;8603;46.944;7.412;2023-03-21T03:55:28;6.00;;;4.63;;
16973;SDS011;8603;46.944;7.412;2023-03-21T03:57:58;5.17;;;4.20;;
16973;SDS011;8603;46.944;7.412;2023-03-21T04:00:25;4.27;;;3.87;;
16973;SDS011;8603;46.944;7.412;2023-03-21T04:02:51;5.07;;;4.23;;
16973;SDS011;8603;46.944;7.412;2023-03-21T04:05:17;5.60;;;4.40;;
16973;SDS011;8603;46.944;7.412;2023-03-21T04:07:45;3.90;;;3.50;;
16973;SDS011;8603;46.944;7.412;2023-03-21T04:10:12;4.80;;;3.97;;
16973;SDS011;8603;46.944;7.412;2023-03-21T04:12:38;5.63;;;4.23;;
16973;SDS011;8603;46.944;7.412;2023-03-21T04:15:04;5.83;;;4.10;;
16973;SDS011;8603;46.944;7.412;2023-03-21T04:17:30;5.90;;;4.30;;
16973;SDS011;8603;46.944;7.412;2023-03-21T04:19:57;5.03;;;3.77;;
16973;SDS011;8603;46.944;7.412;2023-03-21T04:22:23;5.23;;;3.47;;
16973;SDS011;8603;46.944;7.412;2023-03-21T04:24:48;4.00;;;3.60;;
16973;SDS011;8603;46.944;7.412;2023-03-21T04:27:14;4.53;;;3.53;;
16973;SDS011;8603;46.944;7.412;2023-03-21T04:29:40;6.17;;;4.20;;
16973;SDS011;8603;46.944;7.412;2023-03-21T04:32:06;5.50;;;3.80;;
16973;SDS011;8603;46.944;7.412;2023-03-21T04:34:40;5.87;;;3.50;;
16973;SDS011;8603;46.944;7.412;2023-03-21T04:37:07;4.37;;;3.70;;
16973;SDS011;8603;46.944;7.412;2023-03-21T04:39:36;4.50;;;3.57;;
16973;SDS011;8603;46.944;7.412;2023-03-21T04:42:02;4.70;;;3.97;;
16973;SDS011;8603;46.944;7.412;2023-03-21T04:44:28;4.50;;;3.40;;
16973;SDS011;8603;46.944;7.412;2023-03-21T04:46:54;4.10;;;3.70;;
16973;SDS011;8603;46.944;7.412;2023-03-21T04:49:20;4.13;;;3.50;;
16973;SDS011;8603;46.944;7.412;2023-03-21T04:51:45;3.67;;;3.33;;
16973;SDS011;8603;46.944;7.412;2023-03-21T04:54:11;4.63;;;3.70;;
16973;SDS011;8603;46.944;7.412;2023-03-21T04:56:37;4.47;;;3.60;;
16973;SDS011;8603;46.944;7.412;2023-03-21T04:59:11;3.57;;;3.23;;
16973;SDS011;8603;46.944;7.412;2023-03-21T05:01:37;5.03;;;3.70;;
16973;SDS011;8603;46.944;7.412;2023-03-21T05:04:05;3.60;;;3.30;;
16973;SDS011;8603;46.944;7.412;2023-03-21T05:06:31;4.63;;;3.20;;
16973;SDS011;8603;46.944;7.412;2023-03-21T05:08:58;5.07;;;3.20;;
16973;SDS011;8603;46.944;7.412;2023-03-21T05:11:29;3.90;;;3.50;;
16973;SDS011;8603;46.944;7.412;2023-03-21T05:13:56;4.00;;;3.37;;
16973;SDS011;8603;46.944;7.412;2023-03-21T05:16:22;5.07;;;3.80;;
16973;SDS011;8603;46.944;7.412;2023-03-21T05:18:54;3.90;;;3.53;;
16973;SDS011;8603;46.944;7.412;2023-03-21T05:21:21;4.43;;;3.47;;
16973;SDS011;8603;46.944;7.412;2023-03-21T05:23:47;3.83;;;3.53;;
16973;SDS011;8603;46.944;7.412;2023-03-21T05:26:18;4.20;;;3.80;;
16973;SDS011;8603;46.944;7.412;2023-03-21T05:28:46;4.67;;;4.07;;
16973;SDS011;8603;46.944;7.412;2023-03-21T05:31:16;4.40;;;3.67;;
16973;SDS011;8603;46.944;7.412;2023-03-21T05:33:42;4.17;;;3.63;;
16973;SDS011;8603;46.944;7.412;2023-03-21T05:36:08;4.53;;;4.03;;
16973;SDS011;8603;46.944;7.412;2023-03-21T05:38:34;3.87;;;3.43;;
16973;SDS011;8603;46.944;7.412;2023-03-21T05:41:00;4.43;;;4.00;;
16973;SDS011;8603;46.944;7.412;2023-03-21T05:43:26;4.37;;;3.70;;
16973;SDS011;8603;46.944;7.412;2023-03-21T05:45:51;5.33;;;3.90;;
16973;SDS011;8603;46.944;7.412;2023-03-21T05:48:17;5.87;;;4.30;;
16973;SDS011;8603;46.944;7.412;2023-03-21T05:50:43;5.20;;;4.40;;
16973;SDS011;8603;46.944;7.412;2023-03-21T05:53:08;6.03;;;4.40;;
16973;SDS011;8603;46.944;7.412;2023-03-21T05:55:34;5.90;;;4.20;;
16973;SDS011;8603;46.944;7.412;2023-03-21T05:58:00;5.87;;;4.63;;
16973;SDS011;8603;46.944;7.412;2023-03-21T06:00:26;5.23;;;4.73;;
16973;SDS011;8603;46.944;7.412;2023-03-21T06:02:52;7.27;;;5.00;;
16973;SDS011;8603;46.944;7.412;2023-03-21T06:05:17;5.90;;;5.30;;
16973;SDS011;8603;46.944;7.412;2023-03-21T06:07:43;7.30;;;5.23;;
16973;SDS011;8603;46.944;7.412;2023-03-21T06:10:09;7.50;;;4.80;;
16973;SDS011;8603;46.944;7.412;2023-03-21T06:12:35;7.27;;;5.53;;
16973;SDS011;8603;46.944;7.412;2023-03-21T06:15:01;7.07;;;5.10;;
16973;SDS011;8603;46.944;7.412;2023-03-21T06:17:32;6.60;;;5.03;;
16973;SDS011;8603;46.944;7.412;2023-03-21T06:20:01;6.00;;;5.10;;
16973;SDS011;8603;46.944;7.412;2023-03-21T06:22:29;6.17;;;4.47;;
16973;SDS011;8603;46.944;7.412;2023-03-21T06:24:55;5.17;;;4.67;;
16973;SDS011;8603;46.944;7.412;2023-03-21T06:27:22;4.80;;;4.37;;
16973;SDS011;8603;46.944;7.412;2023-03-21T06:29:47;4.43;;;4.03;;
16973;SDS011;8603;46.944;7.412;2023-03-21T06:32:13;5.03;;;3.80;;
16973;SDS011;8603;46.944;7.412;2023-03-21T06:34:41;3.77;;;2.83;;
16973;SDS011;8603;46.944;7.412;2023-03-21T06:37:07;4.13;;;3.27;;
16973;SDS011;8603;46.944;7.412;2023-03-21T06:39:33;4.23;;;2.60;;
16973;SDS011;8603;46.944;7.412;2023-03-21T06:41:59;9.63;;;6.97;;
16973;SDS011;8603;46.944;7.412;2023-03-21T06:44:25;5.23;;;3.37;;
16973;SDS011;8603;46.944;7.412;2023-03-21T06:46:51;3.37;;;2.80;;
16973;SDS011;8603;46.944;7.412;2023-03-21T06:49:16;4.20;;;2.53;;
16973;SDS011;8603;46.944;7.412;2023-03-21T06:51:42;6.30;;;2.73;;
16973;SDS011;8603;46.944;7.412;2023-03-21T06:54:08;2.57;;;1.73;;
16973;SDS011;8603;46.944;7.412;2023-03-21T06:56:33;3.57;;;1.67;;
16973;SDS011;8603;46.944;7.412;2023-03-21T06:58:59;1.63;;;1.53;;
16973;SDS011;8603;46.944;7.412;2023-03-21T07:01:26;2.70;;;1.90;;
16973;SDS011;8603;46.944;7.412;2023-03-21T07:03:54;2.10;;;1.70;;
16973;SDS011;8603;46.944;7.412;2023-03-21T07:06:22;1.73;;;1.63;;
16973;SDS011;8603;46.944;7.412;2023-03-21T07:08:50;2.42;;;1.50;;
16973;SDS011;8603;46.944;7.412;2023-03-21T07:11:17;1.63;;;1.40;;
16973;SDS011;8603;46.944;7.412;2023-03-21T07:13:43;3.40;;;1.77;;
16973;SDS011;8603;46.944;7.412;2023-03-21T07:16:09;1.70;;;1.60;;
16973;SDS011;8603;46.944;7.412;2023-03-21T07:18:35;2.38;;;1.75;;
16973;SDS011;8603;46.944;7.412;2023-03-21T07:21:02;3.10;;;1.75;;
16973;SDS011;8603;46.944;7.412;2023-03-21T07:23:28;1.67;;;1.58;;
16973;SDS011;8603;46.944;7.412;2023-03-21T07:25:53;2.47;;;1.60;;
16973;SDS011;8603;46.944;7.412;2023-03-21T07:28:20;2.28;;;1.45;;
16973;SDS011;8603;46.944;7.412;2023-03-21T07:30:51;2.60;;;1.65;;
16973;SDS011;8603;46.944;7.412;2023-03-21T07:33:20;6.43;;;2.03;;
16973;SDS011;8603;46.944;7.412;2023-03-21T07:35:47;1.67;;;1.57;;
16973;SDS011;8603;46.944;7.412;2023-03-21T07:38:14;1.97;;;1.70;;
16973;SDS011;8603;46.944;7.412;2023-03-21T07:40:40;4.70;;;2.00;;
16973;SDS011;8603;46.944;7.412;2023-03-21T07:43:06;1.67;;;1.57;;
16973;SDS011;8603;46.944;7.412;2023-03-21T07:45:32;2.10;;;1.60;;
16973;SDS011;8603;46.944;7.412;2023-03-21T07:48:00;1.70;;;1.60;;
16973;SDS011;8603;46.944;7.412;2023-03-21T07:50:26;3.72;;;1.65;;
16973;SDS011;8603;46.944;7.412;2023-03-21T07:52:52;2.60;;;1.50;;
16973;SDS011;8603;46.944;7.412;2023-03-21T11:04:21;2.72;;;1.50;;
16973;SDS011;8603;46.944;7.412;2023-03-21T11:10:46;2.53;;;1.65;;
16973;SDS011;8603;46.944;7.412;2023-03-21T11:13:47;2.55;;;1.58;;
16973;SDS011;8603;46.944;7.412;2023-03-21T11:16:43;1.92;;;1.60;;
16973;SDS011;8603;46.944;7.412;2023-03-21T11:20:06;2.05;;;1.52;;
16973;SDS011;8603;46.944;7.412;2023-03-21T11:22:39;1.83;;;1.73;;
16973;SDS011;8603;46.944;7.412;2023-03-21T11:28:41;2.60;;;1.98;;
16973;SDS011;8603;46.944;7.412;2023-03-21T11:31:37;2.92;;;2.08;;
16973;SDS011;8603;46.944;7.412;2023-03-21T11:37:54;2.50;;;2.30;;
16973;SDS011;8603;46.944;7.412;2023-03-21T11:44:41;2.83;;;2.40;;
16973;SDS011;8603;46.944;7.412;2023-03-21T13:37:19;3.75;;;2.47;;
16973;SDS011;8603;46.944;7.412;2023-03-21T13:49:12;3.00;;;2.53;;
16973;SDS011;8603;46.944;7.412;2023-03-21T13:52:00;2.70;;;2.38;;
16973;SDS011;8603;46.944;7.412;2023-03-21T13:55:24;2.53;;;2.30;;
16973;SDS011;8603;46.944;7.412;2023-03-21T14:05:47;2.97;;;2.50;;
16973;SDS011;8603;46.944;7.412;2023-03-21T14:16:46;3.00;;;2.60;;
16973;SDS011;8603;46.944;7.412;2023-03-21T14:23:14;3.60;;;2.70;;
16973;SDS011;8603;46.944;7.412;2023-03-21T14:29:44;3.10;;;2.80;;
16973;SDS011;8603;46.944;7.412;2023-03-21T14:36:31;2.85;;;2.35;;
16973;SDS011;8603;46.944;7.412;2023-03-21T14:40:16;2.50;;;2.20;;
16973;SDS011;8603;46.944;7.412;2023-03-21T14:42:56;3.25;;;2.47;;
16973;SDS011;8603;46.944;7.412;2023-03-21T14:53:24;4.95;;;2.40;;
16973;SDS011;8603;46.944;7.412;2023-03-21T14:56:38;2.65;;;2.45;;
16973;SDS011;8603;46.944;7.412;2023-03-21T14:59:54;2.75;;;2.55;;
16973;SDS011;8603;46.944;7.412;2023-03-21T15:06:10;7.65;;;2.53;;
16973;SDS011;8603;46.944;7.412;2023-03-21T15:09:23;2.75;;;2.53;;
16973;SDS011;8603;46.944;7.412;2023-03-21T15:18:24;3.45;;;2.67;;
16973;SDS011;8603;46.944;7.412;2023-03-21T15:21:26;4.60;;;2.40;;
16973;SDS011;8603;46.944;7.412;2023-03-21T15:35:12;2.47;;;2.28;;
16973;SDS011;8603;46.944;7.412;2023-03-21T15:37:40;3.80;;;2.45;;
16973;SDS011;8603;46.944;7.412;2023-03-21T15:42:47;2.63;;;2.40;;
16973;SDS011;8603;46.944;7.412;2023-03-21T15:45:14;2.80;;;2.40;;
16973;SDS011;8603;46.944;7.412;2023-03-21T15:47:50;3.47;;;2.90;;
16973;SDS011;8603;46.944;7.412;2023-03-21T15:52:51;2.92;;;2.50;;
16973;SDS011;8603;46.944;7.412;2023-03-21T15:55:29;2.60;;;2.40;;
16973;SDS011;8603;46.944;7.412;2023-03-21T15:58:07;2.72;;;2.53;;
16973;SDS011;8603;46.944;7.412;2023-03-21T16:00:41;4.80;;;2.53;;
16973;SDS011;8603;46.944;7.412;2023-03-21T16:03:15;3.00;;;2.50;;
16973;SDS011;8603;46.944;7.412;2023-03-21T16:06:01;5.78;;;2.95;;
16973;SDS011;8603;46.944;7.412;2023-03-21T16:11:26;4.88;;;2.63;;
16973;SDS011;8603;46.944;7.412;2023-03-21T16:14:00;2.33;;;2.13;;
16973;SDS011;8603;46.944;7.412;2023-03-21T16:16:27;2.72;;;2.47;;
16973;SDS011;8603;46.944;7.412;2023-03-21T16:18:54;2.53;;;2.30;;
16973;SDS011;8603;46.944;7.412;2023-03-21T16:21:22;2.72;;;2.53;;
16973;SDS011;8603;46.944;7.412;2023-03-21T16:23:49;3.58;;;2.70;;
16973;SDS011;8603;46.944;7.412;2023-03-21T16:26:16;3.00;;;2.60;;
16973;SDS011;8603;46.944;7.412;2023-03-21T16:28:55;3.83;;;2.53;;
16973;SDS011;8603;46.944;7.412;2023-03-21T16:34:11;3.00;;;2.22;;
16973;SDS011;8603;46.944;7.412;2023-03-21T16:36:38;2.97;;;1.95;;
16973;SDS011;8603;46.944;7.412;2023-03-21T16:39:20;2.30;;;1.83;;
16973;SDS011;8603;46.944;7.412;2023-03-21T16:42:04;2.55;;;2.35;;
16973;SDS011;8603;46.944;7.412;2023-03-21T16:44:32;3.10;;;2.25;;
16973;SDS011;8603;46.944;7.412;2023-03-21T16:47:18;1.98;;;1.83;;
16973;SDS011;8603;46.944;7.412;2023-03-21T16:49:51;2.42;;;2.22;;
16973;SDS011;8603;46.944;7.412;2023-03-21T16:52:29;2.45;;;2.25;;
16973;SDS011;8603;46.944;7.412;2023-03-21T16:55:18;4.03;;;2.53;;
16973;SDS011;8603;46.944;7.412;2023-03-21T17:03:57;4.15;;;3.00;;
16973;SDS011;8603;46.944;7.412;2023-03-21T17:06:34;3.15;;;2.85;;
16973;SDS011;8603;46.944;7.412;2023-03-21T17:09:22;3.10;;;2.60;;
16973;SDS011;8603;46.944;7.412;2023-03-21T17:14:23;3.28;;;2.75;;
16973;SDS011;8603;46.944;7.412;2023-03-21T17:16:49;5.32;;;2.67;;
16973;SDS011;8603;46.944;7.412;2023-03-21T17:19:16;3.08;;;2.40;;
16973;SDS011;8603;46.944;7.412;2023-03-21T17:21:44;3.58;;;2.38;;
16973;SDS011;8603;46.944;7.412;2023-03-21T17:28:06;3.20;;;2.10;;
16973;SDS011;8603;46.944;7.412;2023-03-21T17:31:03;3.08;;;2.63;;
16973;SDS011;8603;46.944;7.412;2023-03-21T17:33:45;2.25;;;2.00;;
16973;SDS011;8603;46.944;7.412;2023-03-21T17:36:35;3.20;;;2.08;;
16973;SDS011;8603;46.944;7.412;2023-03-21T17:39:11;2.90;;;2.05;;
16973;SDS011;8603;46.944;7.412;2023-03-21T17:41:50;2.13;;;1.92;;
16973;SDS011;8603;46.944;7.412;2023-03-21T17:44:37;2.97;;;2.60;;
16973;SDS011;8603;46.944;7.412;2023-03-21T17:47:09;3.28;;;2.45;;
16973;SDS011;8603;46.944;7.412;2023-03-21T17:49:35;3.15;;;2.38;;
16973;SDS011;8603;46.944;7.412;2023-03-21T17:52:10;3.83;;;2.93;;
16973;SDS011;8603;46.944;7.412;2023-03-21T17:54:39;3.37;;;3.03;;
16973;SDS011;8603;46.944;7.412;2023-03-21T17:57:10;3.47;;;3.00;;
16973;SDS011;8603;46.944;7.412;2023-03-21T17:59:57;5.38;;;3.08;;
16973;SDS011;8603;46.944;7.412;2023-03-21T18:02:27;3.10;;;2.80;;
16973;SDS011;8603;46.944;7.412;2023-03-21T18:04:55;4.80;;;3.03;;
16973;SDS011;8603;46.944;7.412;2023-03-21T18:07:23;3.55;;;3.00;;
16973;SDS011;8603;46.944;7.412;2023-03-21T18:09:50;3.43;;;2.93;;
16973;SDS011;8603;46.944;7.412;2023-03-21T18:12:16;3.27;;;2.73;;
16973;SDS011;8603;46.944;7.412;2023-03-21T18:14:41;3.90;;;2.90;;
16973;SDS011;8603;46.944;7.412;2023-03-21T18:17:09;4.07;;;3.00;;
16973;SDS011;8603;46.944;7.412;2023-03-21T18:19:35;5.20;;;3.40;;
16973;SDS011;8603;46.944;7.412;2023-03-21T18:22:15;3.67;;;3.37;;
16973;SDS011;8603;46.944;7.412;2023-03-21T18:25:00;3.93;;;3.27;;
16973;SDS011;8603;46.944;7.412;2023-03-21T18:27:29;4.30;;;3.50;;
16973;SDS011;8603;46.944;7.412;2023-03-21T18:30:07;3.95;;;3.55;;
16973;SDS011;8603;46.944;7.412;2023-03-21T18:32:47;4.47;;;3.37;;
16973;SDS011;8603;46.944;7.412;2023-03-21T18:35:22;4.80;;;3.50;;
16973;SDS011;8603;46.944;7.412;2023-03-21T18:37:54;3.83;;;3.30;;
16973;SDS011;8603;46.944;7.412;2023-03-21T18:40:54;4.73;;;3.20;;
16973;SDS011;8603;46.944;7.412;2023-03-21T18:43:20;4.40;;;3.30;;
16973;SDS011;8603;46.944;7.412;2023-03-21T18:45:45;4.87;;;3.80;;
16973;SDS011;8603;46.944;7.412;2023-03-21T18:48:11;5.73;;;3.07;;
16973;SDS011;8603;46.944;7.412;2023-03-21T18:50:37;4.70;;;3.80;;
16973;SDS011;8603;46.944;7.412;2023-03-21T18:53:03;6.13;;;3.80;;
16973;SDS011;8603;46.944;7.412;2023-03-21T18:55:36;3.13;;;2.83;;
16973;SDS011;8603;46.944;7.412;2023-03-21T18:58:02;6.63;;;3.50;;
16973;SDS011;8603;46.944;7.412;2023-03-21T19:00:30;6.83;;;3.00;;
16973;SDS011;8603;46.944;7.412;2023-03-21T19:02:57;3.83;;;2.93;;
16973;SDS011;8603;46.944;7.412;2023-03-21T19:05:24;5.13;;;2.90;;
16973;SDS011;8603;46.944;7.412;2023-03-21T19:07:50;5.40;;;3.30;;
16973;SDS011;8603;46.944;7.412;2023-03-21T19:10:17;4.53;;;3.60;;
16973;SDS011;8603;46.944;7.412;2023-03-21T19:12:47;4.60;;;3.70;;
16973;SDS011;8603;46.944;7.412;2023-03-21T19:15:14;6.73;;;3.37;;
16973;SDS011;8603;46.944;7.412;2023-03-21T19:17:43;4.20;;;3.70;;
16973;SDS011;8603;46.944;7.412;2023-03-21T19:20:09;4.37;;;3.40;;
16973;SDS011;8603;46.944;7.412;2023-03-21T19:22:37;4.20;;;3.60;;
16973;SDS011;8603;46.944;7.412;2023-03-21T19:25:04;5.33;;;3.93;;
16973;SDS011;8603;46.944;7.412;2023-03-21T19:27:34;6.57;;;5.50;;
16973;SDS011;8603;46.944;7.412;2023-03-21T19:30:01;9.93;;;6.33;;
16973;SDS011;8603;46.944;7.412;2023-03-21T19:32:29;16.70;;;12.60;;
16973;SDS011;8603;46.944;7.412;2023-03-21T19:34:58;25.70;;;18.73;;
16973;SDS011;8603;46.944;7.412;2023-03-21T19:37:26;7.67;;;5.47;;
16973;SDS011;8603;46.944;7.412;2023-03-21T19:39:52;5.53;;;4.07;;
16973;SDS011;8603;46.944;7.412;2023-03-21T19:42:18;5.63;;;4.00;;
16973;SDS011;8603;46.944;7.412;2023-03-21T19:44:45;7.23;;;4.17;;
16973;SDS011;8603;46.944;7.412;2023-03-21T19:47:11;6.57;;;4.23;;
16973;SDS011;8603;46.944;7.412;2023-03-21T19:49:38;10.27;;;4.23;;
16973;SDS011;8603;46.944;7.412;2023-03-21T19:52:07;5.23;;;4.07;;
16973;SDS011;8603;46.944;7.412;2023-03-21T19:54:33;7.17;;;5.03;;
16973;SDS011;8603;46.944;7.412;2023-03-21T19:57:00;4.87;;;4.33;;
16973;SDS011;8603;46.944;7.412;2023-03-21T19:59:25;5.60;;;4.10;;
16973;SDS011;8603;46.944;7.412;2023-03-21T20:01:51;7.43;;;5.27;;
16973;SDS011;8603;46.944;7.412;2023-03-21T20:04:18;4.50;;;3.87;;
16973;SDS011;8603;46.944;7.412;2023-03-21T20:06:43;7.33;;;4.87;;
16973;SDS011;8603;46.944;7.412;2023-03-21T20:09:10;5.97;;;3.93;;
16973;SDS011;8603;46.944;7.412;2023-03-21T20:11:36;7.17;;;4.80;;
16973;SDS011;8603;46.944;7.412;2023-03-21T20:14:02;6.00;;;4.50;;
16973;SDS011;8603;46.944;7.412;2023-03-21T20:16:29;6.77;;;4.60;;
16973;SDS011;8603;46.944;7.412;2023-03-21T20:18:57;7.97;;;4.77;;
16973;SDS011;8603;46.944;7.412;2023-03-21T20:21:23;6.67;;;4.67;;
16973;SDS011;8603;46.944;7.412;2023-03-21T20:23:51;5.90;;;4.67;;
16973;SDS011;8603;46.944;7.412;2023-03-21T20:26:17;7.27;;;4.80;;
16973;SDS011;8603;46.944;7.412;2023-03-21T20:28:44;5.83;;;4.33;;
16973;SDS011;8603;46.944;7.412;2023-03-21T20:31:12;5.63;;;4.07;;
16973;SDS011;8603;46.944;7.412;2023-03-21T20:33:39;4.13;;;3.60;;
16973;SDS011;8603;46.944;7.412;2023-03-21T20:36:06;4.57;;;3.10;;
16973;SDS011;8603;46.944;7.412;2023-03-21T20:38:33;4.20;;;3.80;;
16973;SDS011;8603;46.944;7.412;2023-03-21T20:41:01;4.47;;;3.70;;
16973;SDS011;8603;46.944;7.412;2023-03-21T20:43:31;4.27;;;3.33;;
16973;SDS011;8603;46.944;7.412;2023-03-21T20:46:01;4.53;;;3.60;;
16973;SDS011;8603;46.944;7.412;2023-03-21T20:48:32;4.93;;;3.60;;
16973;SDS011;8603;46.944;7.412;2023-03-21T20:51:02;4.20;;;3.53;;
16973;SDS011;8603;46.944;7.412;2023-03-21T20:53:32;5.10;;;3.83;;
16973;SDS011;8603;46.944;7.412;2023-03-21T20:55:58;4.20;;;3.47;;
16973;SDS011;8603;46.944;7.412;2023-03-21T20:58:37;6.53;;;4.10;;
16973;SDS011;8603;46.944;7.412;2023-03-21T21:01:04;6.97;;;4.93;;
16973;SDS011;8603;46.944;7.412;2023-03-21T21:03:37;8.20;;;6.37;;
16973;SDS011;8603;46.944;7.412;2023-03-21T21:06:11;6.27;;;4.67;;
16973;SDS011;8603;46.944;7.412;2023-03-21T21:08:38;6.60;;;4.40;;
16973;SDS011;8603;46.944;7.412;2023-03-21T21:11:05;6.40;;;4.30;;
16973;SDS011;8603;46.944;7.412;2023-03-21T21:13:31;7.57;;;5.53;;
16973;SDS011;8603;46.944;7.412;2023-03-21T21:15:57;12.30;;;6.57;;
16973;SDS011;8603;46.944;7.412;2023-03-21T21:18:23;8.93;;;6.20;;
16973;SDS011;8603;46.944;7.412;2023-03-21T21:20:56;11.80;;;7.23;;
16973;SDS011;8603;46.944;7.412;2023-03-21T21:23:23;7.77;;;5.60;;
16973;SDS011;8603;46.944;7.412;2023-03-21T21:25:51;12.37;;;6.90;;
16973;SDS011;8603;46.944;7.412;2023-03-21T21:28:20;8.23;;;5.70;;
16973;SDS011;8603;46.944;7.412;2023-03-21T21:30:47;6.77;;;4.70;;
16973;SDS011;8603;46.944;7.412;2023-03-21T21:33:14;5.40;;;4.10;;
16973;SDS011;8603;46.944;7.412;2023-03-21T21:35:42;5.20;;;3.77;;
16973;SDS011;8603;46.944;7.412;2023-03-21T21:38:15;6.63;;;3.93;;
16973;SDS011;8603;46.944;7.412;2023-03-21T21:40:44;6.90;;;3.90;;
16973;SDS011;8603;46.944;7.412;2023-03-21T21:43:10;5.50;;;3.83;;
16973;SDS011;8603;46.944;7.412;2023-03-21T21:45:37;5.27;;;3.83;;
16973;SDS011;8603;46.944;7.412;2023-03-21T21:48:04;4.60;;;3.60;;
16973;SDS011;8603;46.944;7.412;2023-03-21T21:50:30;7.10;;;4.10;;
16973;SDS011;8603;46.944;7.412;2023-03-21T21:52:56;4.77;;;3.43;;
16973;SDS011;8603;46.944;7.412;2023-03-21T21:55:27;6.23;;;3.70;;
16973;SDS011;8603;46.944;7.412;2023-03-21T21:57:54;5.97;;;3.53;;
16973;SDS011;8603;46.944;7.412;2023-03-21T22:00:22;5.27;;;3.57;;
16973;SDS011;8603;46.944;7.412;2023-03-21T22:02:49;5.07;;;4.00;;
16973;SDS011;8603;46.944;7.412;2023-03-21T22:05:16;5.63;;;3.90;;
16973;SDS011;8603;46.944;7.412;2023-03-21T22:07:45;6.87;;;5.00;;
16973;SDS011;8603;46.944;7.412;2023-03-21T22:10:12;20.83;;;14.57;;
16973;SDS011;8603;46.944;7.412;2023-03-21T22:12:38;26.63;;;19.13;;
16973;SDS011;8603;46.944;7.412;2023-03-21T22:15:04;34.77;;;23.17;;
16973;SDS011;8603;46.944;7.412;2023-03-21T22:17:35;29.57;;;18.90;;
16973;SDS011;8603;46.944;7.412;2023-03-21T22:20:02;16.60;;;10.07;;
16973;SDS011;8603;46.944;7.412;2023-03-21T22:22:33;32.17;;;18.40;;
16973;SDS011;8603;46.944;7.412;2023-03-21T22:25:00;16.50;;;10.40;;
16973;SDS011;8603;46.944;7.412;2023-03-21T22:27:26;31.07;;;18.13;;
16973;SDS011;8603;46.944;7.412;2023-03-21T22:29:52;13.90;;;9.07;;
16973;SDS011;8603;46.944;7.412;2023-03-21T22:32:18;13.60;;;9.03;;
16973;SDS011;8603;46.944;7.412;2023-03-21T22:34:44;10.07;;;5.83;;
16973;SDS011;8603;46.944;7.412;2023-03-21T22:37:10;6.17;;;4.27;;
16973;SDS011;8603;46.944;7.412;2023-03-21T22:39:36;6.60;;;3.77;;
16973;SDS011;8603;46.944;7.412;2023-03-21T22:42:02;4.77;;;3.07;;
16973;SDS011;8603;46.944;7.412;2023-03-21T22:44:32;3.40;;;3.03;;